createdAt,value
2022-08-17T00:01:52.316Z,12.73
2022-08-17T00:04:20.644Z,12.57
2022-08-17T00:06:49.059Z,16.03
2022-08-17T00:09:18.814Z,14.53
2022-08-17T00:12:40.695Z,16.50
2022-08-17T00:14:36.103Z,21.03
2022-08-17T00:17:04.798Z,35.63
2022-08-17T00:19:32.944Z,27.93
2022-08-17T00:22:31.260Z,28.23
2022-08-17T00:24:50.209Z,23.50
2022-08-17T00:27:18.078Z,21.27
2022-08-17T00:29:45.940Z,19.00
2022-08-17T00:33:12.070Z,28.03
2022-08-17T00:35:08.447Z,21.27
2022-08-17T00:37:35.633Z,10.83
2022-08-17T00:40:02.833Z,17.77
2022-08-17T00:42:31.283Z,14.47
2022-08-17T00:44:59.379Z,12.33
2022-08-17T00:47:26.792Z,11.20
2022-08-17T00:49:54.099Z,12.63
2022-08-17T00:52:25.412Z,13.83
2022-08-17T00:54:54.911Z,17.80
2022-08-17T00:57:32.151Z,12.53
2022-08-17T01:00:14.335Z,15.43
2022-08-17T01:02:44.259Z,15.30
2022-08-17T01:05:16.597Z,9.93
2022-08-17T01:07:48.046Z,13.80
2022-08-17T01:10:58.995Z,17.57
2022-08-17T01:13:05.860Z,11.83
2022-08-17T01:15:37.469Z,10.60
2022-08-17T01:18:09.709Z,14.80
2022-08-17T01:20:57.827Z,14.77
2022-08-17T01:23:26.593Z,13.60
2022-08-17T01:25:56.760Z,11.60
2022-08-17T01:28:52.477Z,12.27
2022-08-17T01:31:14.324Z,15.90
2022-08-17T01:33:41.723Z,12.20
2022-08-17T01:36:08.735Z,11.83
2022-08-17T01:38:37.517Z,21.30
2022-08-17T01:41:11.323Z,19.80
2022-08-17T01:43:45.071Z,13.20
2022-08-17T01:46:18.790Z,16.30
2022-08-17T01:48:47.630Z,11.47
2022-08-17T01:51:16.187Z,11.23
2022-08-17T01:53:48.018Z,14.37
2022-08-17T01:56:18.459Z,16.50
2022-08-17T01:58:45.744Z,20.30
2022-08-17T02:01:14.823Z,19.87
2022-08-17T02:03:42.294Z,13.03
2022-08-17T02:06:27.627Z,11.30
2022-08-17T02:09:01.950Z,15.30
2022-08-17T02:11:31.185Z,24.97
2022-08-17T02:14:03.110Z,15.83
2022-08-17T02:16:36.968Z,23.73
2022-08-17T02:19:07.669Z,15.90
2022-08-17T02:21:35.592Z,19.87
2022-08-17T02:24:04.562Z,15.30
2022-08-17T02:26:32.524Z,12.43
2022-08-17T02:28:59.568Z,13.50
2022-08-17T02:31:26.865Z,14.80
2022-08-17T02:33:56.883Z,14.97
2022-08-17T02:36:30.472Z,18.10
2022-08-17T02:38:58.706Z,16.73
2022-08-17T02:41:25.806Z,18.07
2022-08-17T02:43:53.655Z,22.00
2022-08-17T02:46:20.636Z,14.90
2022-08-17T02:48:47.553Z,22.23
2022-08-17T02:51:14.826Z,15.03
2022-08-17T02:53:41.829Z,15.60
2022-08-17T02:56:08.786Z,29.23
2022-08-17T02:58:36.194Z,17.30
2022-08-17T03:01:07.492Z,19.10
2022-08-17T03:03:35.787Z,21.63
2022-08-17T03:06:04.041Z,40.87
2022-08-17T03:08:31.076Z,20.17
2022-08-17T03:10:58.020Z,17.37
2022-08-17T03:13:25.068Z,15.27
2022-08-17T03:15:52.036Z,17.60
2022-08-17T03:18:25.295Z,20.07
2022-08-17T03:20:59.186Z,19.70
2022-08-17T03:23:29.682Z,19.67
2022-08-17T03:25:59.652Z,14.13
2022-08-17T03:28:27.833Z,16.53
2022-08-17T03:30:55.148Z,22.97
2022-08-17T03:33:22.582Z,16.80
2022-08-17T03:35:49.832Z,18.40
2022-08-17T03:38:17.900Z,16.60
2022-08-17T03:40:56.729Z,14.50
2022-08-17T03:43:30.791Z,18.30
2022-08-17T03:46:28.340Z,15.40
2022-08-17T03:49:24.504Z,20.53
2022-08-17T03:52:10.616Z,20.07
2022-08-17T03:55:13.073Z,15.07
2022-08-17T03:57:40.644Z,17.17
2022-08-17T04:00:08.476Z,14.43
2022-08-17T04:02:36.097Z,17.80
2022-08-17T04:05:03.271Z,19.47
2022-08-17T04:07:31.435Z,15.57
2022-08-17T04:09:59.438Z,13.90
2022-08-17T04:12:30.840Z,14.53
2022-08-17T04:14:59.312Z,17.67
2022-08-17T04:17:29.051Z,12.33
2022-08-17T04:19:56.582Z,14.30
2022-08-17T04:22:31.159Z,15.93
2022-08-17T04:25:08.789Z,12.67
2022-08-17T04:27:36.257Z,12.80
2022-08-17T04:30:07.114Z,16.70
2022-08-17T04:33:03.409Z,16.03
2022-08-17T04:35:37.584Z,20.27
2022-08-17T04:38:05.095Z,12.73
2022-08-17T04:40:51.223Z,12.20
2022-08-17T04:43:21.360Z,13.70
2022-08-17T04:45:56.228Z,13.83
2022-08-17T04:48:36.987Z,14.23
2022-08-17T04:51:13.544Z,14.10
2022-08-17T04:53:53.891Z,13.60
2022-08-17T04:56:22.590Z,13.87
2022-08-17T04:58:51.705Z,10.90
2022-08-17T05:01:23.692Z,16.20
2022-08-17T05:03:56.645Z,10.70
2022-08-17T05:06:24.030Z,10.43
2022-08-17T05:08:51.073Z,20.33
2022-08-17T05:11:18.244Z,10.73
2022-08-17T05:13:45.457Z,15.30
2022-08-17T05:16:12.380Z,21.53
2022-08-17T05:18:39.587Z,12.33
2022-08-17T05:21:07.425Z,16.57
2022-08-17T05:23:43.151Z,20.83
2022-08-17T05:26:26.297Z,25.83
2022-08-17T05:28:58.504Z,20.00
2022-08-17T05:31:31.162Z,26.70
2022-08-17T05:33:58.801Z,17.03
2022-08-17T05:36:41.640Z,33.70
2022-08-17T05:39:16.424Z,17.50
2022-08-17T05:41:45.485Z,16.87
2022-08-17T05:44:12.685Z,15.30
2022-08-17T05:46:43.814Z,10.33
2022-08-17T05:49:11.896Z,14.73
2022-08-17T05:52:20.387Z,16.87
2022-08-17T05:55:39.571Z,13.77
2022-08-17T05:58:32.560Z,12.73
2022-08-17T06:01:51.481Z,14.03
2022-08-17T06:04:50.962Z,14.40
2022-08-17T06:07:40.976Z,16.30
2022-08-17T06:10:53.252Z,16.80
2022-08-17T06:14:00.654Z,33.50
2022-08-17T06:16:34.397Z,17.40
2022-08-17T06:19:24.962Z,20.67
2022-08-17T06:21:54.881Z,20.73
2022-08-17T06:24:45.930Z,26.70
2022-08-17T06:27:33.816Z,11.47
2022-08-17T06:30:11.190Z,14.97
2022-08-17T06:32:41.384Z,14.60
2022-08-17T06:35:11.498Z,7.93
2022-08-17T06:38:04.417Z,12.27
2022-08-17T06:41:22.831Z,14.17
2022-08-17T06:44:43.537Z,12.43
2022-08-17T06:47:28.635Z,7.03
2022-08-17T06:50:23.754Z,9.93
2022-08-17T06:53:02.519Z,15.13
2022-08-17T06:56:07.079Z,6.93
2022-08-17T06:58:35.792Z,6.07
2022-08-17T07:01:10.782Z,6.43
2022-08-17T07:04:24.074Z,5.97
2022-08-17T07:06:59.774Z,9.17
2022-08-17T07:09:34.025Z,5.77
2022-08-17T07:12:16.288Z,6.10
2022-08-17T07:15:08.380Z,6.23
2022-08-17T07:17:47.631Z,6.83
2022-08-17T07:20:17.931Z,6.23
2022-08-17T07:23:26.796Z,5.30
2022-08-17T07:26:03.903Z,9.80
2022-08-17T07:28:32.919Z,6.00
2022-08-17T07:31:00.336Z,9.47
2022-08-17T07:33:30.801Z,5.30
2022-08-17T07:35:59.399Z,5.87
2022-08-17T07:38:31.662Z,6.03
2022-08-17T07:41:05.322Z,7.20
2022-08-17T07:44:01.871Z,5.53
2022-08-17T07:47:05.327Z,10.77
2022-08-17T07:49:39.011Z,8.50
2022-08-17T07:52:24.233Z,8.03
2022-08-17T07:54:56.895Z,5.40
2022-08-17T07:57:32.606Z,5.67
2022-08-17T08:00:23.888Z,20.83
2022-08-17T08:03:26.207Z,4.93
2022-08-17T08:06:00.307Z,7.27
2022-08-17T08:08:50.529Z,7.67
2022-08-17T08:11:34.681Z,5.57
2022-08-17T08:14:33.669Z,6.00
2022-08-17T08:17:03.482Z,5.03
2022-08-17T08:19:32.233Z,4.27
2022-08-17T08:22:21.831Z,4.07
2022-08-17T08:25:32.829Z,3.80
2022-08-17T08:28:14.059Z,4.03
2022-08-17T08:30:47.147Z,3.90
2022-08-17T08:33:32.070Z,9.40
2022-08-17T08:37:13.105Z,9.40
2022-08-17T08:39:19.246Z,4.20
2022-08-17T08:42:24.316Z,4.00
2022-08-17T08:45:15.668Z,3.67
2022-08-17T08:48:53.899Z,4.10
2022-08-17T08:51:47.504Z,15.27
2022-08-17T08:54:26.588Z,3.47
2022-08-17T08:57:24.366Z,3.27
2022-08-17T09:00:20.548Z,6.82
2022-08-17T09:03:37.621Z,3.97
2022-08-17T09:06:39.271Z,2.90
2022-08-17T09:09:34.869Z,6.05
2022-08-17T09:12:41.323Z,4.05
2022-08-17T09:15:22.291Z,5.43
2022-08-17T09:19:00.092Z,3.13
2022-08-17T09:21:06.447Z,3.00
2022-08-17T09:26:43.113Z,3.45
2022-08-17T09:29:16.547Z,6.82
2022-08-17T09:31:58.007Z,3.00
2022-08-17T09:34:37.129Z,3.47
2022-08-17T09:37:30.520Z,8.10
2022-08-17T09:40:23.395Z,10.52
2022-08-17T09:43:16.328Z,11.02
2022-08-17T09:45:57.495Z,7.78
2022-08-17T09:48:55.423Z,6.20
2022-08-17T09:51:40.154Z,2.60
2022-08-17T09:54:39.156Z,3.22
2022-08-17T09:57:57.006Z,3.08
2022-08-17T10:00:27.957Z,4.43
2022-08-17T10:03:44.238Z,4.70
2022-08-17T10:06:22.797Z,3.28
2022-08-17T10:08:58.944Z,3.78
2022-08-17T10:11:57.553Z,3.40
2022-08-17T10:14:44.517Z,4.72
2022-08-17T10:17:27.901Z,3.17
2022-08-17T10:20:30.824Z,12.87
2022-08-17T10:23:26.944Z,3.87
2022-08-17T10:26:14.716Z,10.82
2022-08-17T10:29:17.796Z,3.50
2022-08-17T10:31:50.155Z,7.05
2022-08-17T10:34:41.568Z,10.67
2022-08-17T10:37:25.566Z,3.80
2022-08-17T10:40:39.187Z,5.50
2022-08-17T10:44:36.582Z,4.57
2022-08-17T10:47:17.508Z,12.67
2022-08-17T10:49:54.300Z,5.97
2022-08-17T10:52:50.528Z,3.90
2022-08-17T10:55:19.070Z,5.30
2022-08-17T10:57:50.402Z,4.77
2022-08-17T11:00:56.546Z,13.27
2022-08-17T11:03:25.305Z,4.73
2022-08-17T11:06:21.807Z,4.90
2022-08-17T11:09:18.661Z,9.73
2022-08-17T11:12:15.559Z,14.40
2022-08-17T11:15:39.012Z,4.60
2022-08-17T11:18:53.575Z,9.93
2022-08-17T11:22:06.447Z,5.63
2022-08-17T11:24:50.251Z,17.00
2022-08-17T11:27:35.551Z,5.50
2022-08-17T11:30:11.954Z,8.20
2022-08-17T11:32:47.356Z,8.03
2022-08-17T11:35:23.794Z,6.90
2022-08-17T11:38:25.311Z,5.00
2022-08-17T11:41:38.937Z,6.93
2022-08-17T11:44:37.951Z,8.10
2022-08-17T11:47:35.809Z,5.30
2022-08-17T11:50:52.061Z,6.20
2022-08-17T11:54:21.470Z,5.50
2022-08-17T11:56:51.238Z,8.67
2022-08-17T11:59:45.935Z,5.10
2022-08-17T12:02:35.367Z,8.30
2022-08-17T12:05:37.141Z,10.23
2022-08-17T12:08:15.216Z,13.20
2022-08-17T12:11:10.019Z,7.33
2022-08-17T12:13:46.816Z,5.20
2022-08-17T12:16:19.225Z,18.13
2022-08-17T12:18:59.516Z,9.03
2022-08-17T12:21:43.585Z,8.80
2022-08-17T12:24:38.407Z,4.47
2022-08-17T12:27:07.719Z,13.77
2022-08-17T12:29:39.195Z,19.53
2022-08-17T12:32:13.101Z,5.27
2022-08-17T12:34:42.724Z,5.10
2022-08-17T12:37:24.991Z,9.07
2022-08-17T12:39:57.099Z,5.57
2022-08-17T12:42:34.796Z,6.33
2022-08-17T12:45:04.036Z,9.70
2022-08-17T12:47:32.841Z,13.60
2022-08-17T12:50:29.508Z,8.20
2022-08-17T12:53:01.140Z,6.70
2022-08-17T12:55:35.135Z,6.70
2022-08-17T12:58:02.370Z,7.43
2022-08-17T13:00:32.925Z,9.47
2022-08-17T13:03:06.119Z,5.30
2022-08-17T13:05:55.904Z,5.40
2022-08-17T13:08:42.879Z,6.20
2022-08-17T13:11:22.356Z,14.27
2022-08-17T13:13:52.116Z,4.83
2022-08-17T13:16:25.426Z,5.27
2022-08-17T13:19:07.102Z,10.10
2022-08-17T13:21:37.727Z,4.40
2022-08-17T13:24:38.186Z,5.63
2022-08-17T13:27:12.865Z,5.57
2022-08-17T13:29:59.716Z,10.67
2022-08-17T13:32:36.755Z,5.43
2022-08-17T13:35:44.210Z,10.00
2022-08-17T13:38:39.555Z,4.25
2022-08-17T13:41:07.587Z,5.97
2022-08-17T13:43:48.597Z,9.30
2022-08-17T13:46:22.019Z,3.35
2022-08-17T13:49:05.951Z,3.47
2022-08-17T13:51:41.389Z,4.00
2022-08-17T13:54:47.599Z,3.47
2022-08-17T13:57:24.749Z,13.27
2022-08-17T14:00:06.035Z,4.35
2022-08-17T14:02:33.011Z,6.88
2022-08-17T14:05:02.060Z,4.43
2022-08-17T14:07:36.867Z,5.68
2022-08-17T14:10:11.951Z,4.28
2022-08-17T14:12:41.356Z,3.90
2022-08-17T14:15:09.677Z,7.28
2022-08-17T14:17:48.697Z,12.48
2022-08-17T14:20:18.203Z,3.70
2022-08-17T14:22:50.245Z,4.65
2022-08-17T14:25:25.022Z,4.97
2022-08-17T14:27:53.785Z,10.45
2022-08-17T14:30:24.613Z,7.78
2022-08-17T14:32:53.085Z,5.22
2022-08-17T14:35:22.444Z,9.95
2022-08-17T14:37:50.209Z,6.90
2022-08-17T14:40:20.828Z,9.25
2022-08-17T14:42:48.276Z,7.93
2022-08-17T14:45:29.607Z,7.23
2022-08-17T14:48:00.777Z,11.60
2022-08-17T14:50:27.833Z,11.97
2022-08-17T14:52:57.981Z,13.30
2022-08-17T14:55:27.413Z,12.13
2022-08-17T14:57:54.329Z,11.63
2022-08-17T15:00:21.426Z,11.13
2022-08-17T15:02:53.838Z,17.30
2022-08-17T15:05:23.430Z,16.80
2022-08-17T15:07:50.951Z,13.10
2022-08-17T15:10:18.172Z,16.10
2022-08-17T15:12:45.546Z,17.20
2022-08-17T15:15:15.195Z,24.70
2022-08-17T15:17:45.881Z,14.30
2022-08-17T15:20:20.866Z,18.43
2022-08-17T15:22:55.319Z,17.60
2022-08-17T15:25:24.340Z,19.40
2022-08-17T15:27:51.812Z,20.80
2022-08-17T15:30:19.951Z,22.20
2022-08-17T15:32:54.502Z,19.60
2022-08-17T15:35:28.734Z,18.97
2022-08-17T15:38:10.197Z,16.63
2022-08-17T15:40:44.174Z,16.70
2022-08-17T15:43:14.636Z,16.03
2022-08-17T15:45:42.776Z,15.23
2022-08-17T15:48:09.972Z,19.33
2022-08-17T15:50:36.961Z,19.63
2022-08-17T15:53:04.992Z,24.27
2022-08-17T15:55:33.117Z,21.80
2022-08-17T15:58:00.728Z,27.43
2022-08-17T16:00:29.407Z,24.37
2022-08-17T16:03:44.451Z,22.03
2022-08-17T16:05:44.435Z,16.30
2022-08-17T16:08:18.515Z,18.37
2022-08-17T16:10:48.237Z,19.83
2022-08-17T16:13:17.925Z,18.30
2022-08-17T16:15:53.026Z,17.90
2022-08-17T16:18:31.380Z,19.60
2022-08-17T16:21:23.109Z,21.53
2022-08-17T16:23:52.333Z,24.57
2022-08-17T16:26:19.497Z,21.37
2022-08-17T16:28:46.874Z,21.17
2022-08-17T16:31:14.661Z,22.03
2022-08-17T16:33:42.261Z,25.97
2022-08-17T16:36:29.575Z,25.30
2022-08-17T16:38:57.131Z,19.77
2022-08-17T16:41:42.511Z,30.77
2022-08-17T16:44:09.370Z,18.53
2022-08-17T16:46:46.092Z,22.83
2022-08-17T16:49:35.404Z,23.47
2022-08-17T16:52:02.991Z,24.90
2022-08-17T16:54:30.283Z,24.90
2022-08-17T16:56:59.276Z,33.00
2022-08-17T16:59:32.289Z,24.03
2022-08-17T17:02:12.988Z,25.57
2022-08-17T17:05:27.433Z,28.63
2022-08-17T17:08:25.642Z,25.53
2022-08-17T17:10:55.911Z,37.20
2022-08-17T17:14:08.697Z,39.97
2022-08-17T17:16:46.451Z,29.30
2022-08-17T17:19:34.861Z,33.47
2022-08-17T17:22:35.409Z,35.80
2022-08-17T17:25:31.748Z,35.90
2022-08-17T17:28:35.067Z,31.17
2022-08-17T17:31:32.032Z,36.53
2022-08-17T17:34:04.585Z,32.67
2022-08-17T17:37:02.007Z,35.17
2022-08-17T17:39:57.830Z,31.83
2022-08-17T17:42:28.960Z,40.03
2022-08-17T17:45:27.764Z,44.17
2022-08-17T17:47:54.681Z,42.90
2022-08-17T17:50:32.041Z,36.77
2022-08-17T17:53:09.606Z,33.83
2022-08-17T17:56:43.714Z,31.70
2022-08-17T18:06:00.592Z,32.47
2022-08-17T18:08:47.259Z,30.97
2022-08-17T18:11:51.639Z,39.80
2022-08-17T18:14:50.783Z,33.37
2022-08-17T18:17:18.738Z,43.17
2022-08-17T18:19:48.615Z,36.50
2022-08-17T18:22:20.618Z,36.70
2022-08-17T18:24:56.234Z,40.77
2022-08-17T18:27:38.795Z,51.70
2022-08-17T18:30:35.725Z,42.30
2022-08-17T18:33:23.375Z,41.43
2022-08-17T18:35:58.589Z,48.43
2022-08-17T18:38:34.261Z,47.47
2022-08-17T18:41:21.268Z,55.70
2022-08-17T18:44:16.194Z,52.93
2022-08-17T18:46:43.173Z,42.47
2022-08-17T18:49:28.698Z,47.80
2022-08-17T18:52:15.378Z,48.60
2022-08-17T18:55:22.106Z,47.07
2022-08-17T18:57:59.660Z,42.30
2022-08-17T19:00:38.378Z,48.87
2022-08-17T19:03:41.426Z,50.00
2022-08-17T19:06:31.255Z,47.40
2022-08-17T19:08:58.464Z,51.03
2022-08-17T19:11:34.036Z,47.93
2022-08-17T19:14:10.664Z,41.53
2022-08-17T19:16:54.592Z,48.23
2022-08-17T19:19:56.606Z,42.77
2022-08-17T19:23:12.759Z,53.13
2022-08-17T19:25:47.458Z,48.40
2022-08-17T19:28:38.562Z,43.10
2022-08-17T19:31:17.050Z,48.77
2022-08-17T19:33:44.527Z,48.73
2022-08-17T19:36:56.675Z,43.77
2022-08-17T19:39:55.698Z,44.80
2022-08-17T19:42:56.128Z,55.10
2022-08-17T19:46:05.946Z,52.37
2022-08-17T19:49:10.206Z,50.33
2022-08-17T19:52:10.733Z,61.47
2022-08-17T19:54:42.154Z,49.10
2022-08-17T19:57:49.218Z,49.07
2022-08-17T20:00:17.999Z,50.23
2022-08-17T20:03:16.655Z,60.90
2022-08-17T20:06:13.111Z,56.13
2022-08-17T20:12:05.919Z,55.50
2022-08-17T20:14:53.308Z,52.77
2022-08-17T20:17:24.986Z,55.00
2022-08-17T20:20:22.233Z,56.00
2022-08-17T20:22:58.764Z,55.27
2022-08-17T20:26:05.728Z,62.20
2022-08-17T20:28:35.620Z,62.73
2022-08-17T20:31:26.494Z,60.70
2022-08-17T20:33:55.898Z,61.07
2022-08-17T20:36:24.416Z,55.40
2022-08-17T20:39:00.284Z,58.83
2022-08-17T20:41:30.891Z,57.17
2022-08-17T20:44:07.157Z,59.17
2022-08-17T20:46:52.154Z,59.17
2022-08-17T20:49:35.180Z,50.07
2022-08-17T20:52:16.664Z,49.70
2022-08-17T20:54:57.361Z,49.40
2022-08-17T20:57:48.571Z,51.20
2022-08-17T21:00:40.683Z,55.33
2022-08-17T21:03:50.252Z,53.57
2022-08-17T21:06:21.194Z,61.00
2022-08-17T21:09:13.377Z,51.63
2022-08-17T21:12:03.049Z,53.37
2022-08-17T21:14:56.467Z,54.90
2022-08-17T21:17:59.260Z,59.17
2022-08-17T21:21:24.553Z,68.67
2022-08-17T21:24:32.014Z,61.80
2022-08-17T21:27:40.225Z,63.53
2022-08-17T21:30:41.390Z,59.40
2022-08-17T21:33:39.563Z,77.30
2022-08-17T21:36:23.847Z,65.30
2022-08-17T21:39:02.292Z,70.57
2022-08-17T21:41:35.223Z,65.60
2022-08-17T21:44:32.027Z,71.53
2022-08-17T21:47:20.189Z,67.10
2022-08-17T21:49:47.567Z,69.30
2022-08-17T21:52:17.714Z,79.80
2022-08-17T21:54:52.223Z,72.80
2022-08-17T21:57:27.594Z,73.40
2022-08-17T22:00:00.386Z,80.10
2022-08-17T22:02:55.389Z,74.97
2022-08-17T22:05:34.379Z,77.23
2022-08-17T22:08:19.641Z,75.00
2022-08-17T22:10:51.275Z,79.47
2022-08-17T22:13:29.453Z,77.53
2022-08-17T22:16:28.618Z,76.87
2022-08-17T22:18:58.409Z,79.57
2022-08-17T22:21:26.163Z,92.50
2022-08-17T22:24:06.825Z,86.20
2022-08-17T22:27:13.081Z,83.60
2022-08-17T22:29:57.504Z,84.70
2022-08-17T22:32:51.569Z,89.93
2022-08-17T22:35:47.969Z,78.50
2022-08-17T22:38:41.668Z,77.43
2022-08-17T22:41:48.415Z,81.40
2022-08-17T22:44:51.713Z,81.90
2022-08-17T22:47:38.651Z,82.33
2022-08-17T22:50:14.157Z,85.67
2022-08-17T22:53:03.025Z,88.53
2022-08-17T22:55:50.397Z,93.47
2022-08-17T22:58:39.500Z,94.93
2022-08-17T23:01:46.265Z,88.97
2022-08-17T23:04:33.330Z,84.60
2022-08-17T23:07:00.219Z,96.20
2022-08-17T23:09:27.534Z,84.07
2022-08-17T23:11:58.751Z,96.07
2022-08-17T23:14:31.605Z,94.73
2022-08-17T23:16:59.388Z,95.40
2022-08-17T23:19:27.478Z,93.17
2022-08-17T23:21:56.371Z,97.83
2022-08-17T23:24:26.308Z,94.60
2022-08-17T23:26:54.096Z,98.33
2022-08-17T23:29:21.548Z,97.10
2022-08-17T23:31:50.662Z,110.20
2022-08-17T23:34:18.629Z,93.00
2022-08-17T23:36:52.915Z,103.10
2022-08-17T23:39:28.560Z,100.90
2022-08-17T23:42:01.511Z,106.30
2022-08-17T23:44:28.925Z,96.33
2022-08-17T23:46:55.908Z,101.40
2022-08-17T23:49:24.871Z,124.43
2022-08-17T23:51:55.221Z,110.90
2022-08-17T23:54:29.481Z,114.60
2022-08-17T23:56:56.596Z,103.33
2022-08-17T23:59:23.739Z,119.20
